Portada
METAR-TAF:

METAR-TAF

Aeroports :

Kisarazu, Japó

latitud: 35-24N, longitud: 139-55E, altitud: 3 m

Observació

L'informe es va fer fa 13 hores i 11 minuts, a les 05:38 UTC
Vent 10 kt del Nord
Temperatura 22°C
Humitat 38%
Pressió 1000 hPa
Visibilitat 10 km o més
Escasses núvols a una alçada de 3000 ft
Cel ennuvolat a una alçada de 7000 ft
Cel ennuvolat a una alçada de 22000 ft

METAR: RJTK 220538Z 36010KT 9999 FEW030 BKN070 BKN220 22/07 Q1000 RMK 2CU030 5AC070 7CI220 A2955

Hora: 03:49 (18:49 UTC)


TAF: manca

Observacions i pronòstics meteorològics de més de 4000 aeroports (METAR i TAF).

Les estacions disponibles són els punts grocs i vermells al mapa.

Posi el ratolí al punt desitjat per veure el nom de l'estació.

Feu clic per veure les observacions i els pronòstics meteorològics.

Per canviar el mapa: feu clic els botons verds amb una creu de color negre per apropar; al botó verd amb un guió per allunyar la imatge; o en les fletxes verdes per a mapes adjacents.


METAR-TAF: